Time;durP1;ratioP1;P1;durP2;ratioP2;P2;SDS_P1;SDS_P2;PMS_P1;PMS_P2;Temp;Humidity;BMP_temperature;BMP_pressure;BME280_temperature;BME280_humidity;BME280_pressure;Samples;Min_cycle;Max_cycle;Signal;HPM_P1;HPM_P2
2023/10/12 00:00:27;;;;;;;5.10;3.88;;;;;;;;;;5935849;28;20411;-73
2023/10/12 00:03:18;;;;;;;5.07;3.75;;;;;;;;;;5911597;28;20040;-73
2023/10/12 00:06:10;;;;;;;6.40;3.63;;;;;;;;;;5912244;28;20044;-73
2023/10/12 00:09:09;;;;;;;10.07;3.90;;;;;;;;;;5912299;28;20044;-74
2023/10/12 00:12:07;;;;;;;3.92;2.80;;;;;;;;;;5912849;28;20415;-72
2023/10/12 00:15:02;;;;;;;6.60;2.95;;;;;;;;;;5912410;28;20198;-73
2023/10/12 00:18:03;;;;;;;4.63;2.70;;;;;;;;;;5912327;28;20067;-72
2023/10/12 00:20:55;;;;;;;11.35;3.63;;;;;;;;;;5895718;28;20483;-72
2023/10/12 00:23:47;;;;;;;4.50;3.50;;;;;;;;;;5894160;28;20146;-74
2023/10/12 00:26:38;;;;;;;4.55;2.50;;;;;;;;;;5911890;28;20379;-72
2023/10/12 00:29:28;;;;;;;3.90;2.70;;;;;;;;;;5911968;28;20158;-73
2023/10/12 00:32:19;;;;;;;2.53;2.30;;;;;;;;;;5911563;28;20044;-72
2023/10/12 00:35:11;;;;;;;3.65;2.03;;;;;;;;;;5911616;28;20407;-73
2023/10/12 00:38:10;;;;;;;4.57;2.63;;;;;;;;;;5911725;28;20119;-72
2023/10/12 00:41:04;;;;;;;4.07;2.92;;;;;;;;;;5911714;28;20044;-74
2023/10/12 00:44:12;;;;;;;15.05;2.80;;;;;;;;;;5903225;28;20044;-73
2023/10/12 00:47:12;;;;;;;2.38;1.95;;;;;;;;;;5911086;28;20045;-72
2023/10/12 00:50:11;;;;;;;4.35;2.33;;;;;;;;;;5894896;28;20476;-72
2023/10/12 00:53:31;;;;;;;5.30;3.10;;;;;;;;;;5911105;28;20064;-72
2023/10/12 00:56:26;;;;;;;5.70;2.67;;;;;;;;;;5897342;28;20048;-73
2023/10/12 00:59:21;;;;;;;7.90;2.97;;;;;;;;;;5911113;28;20051;-72
2023/10/12 01:02:12;;;;;;;7.40;2.65;;;;;;;;;;5911033;28;20071;-73
2023/10/12 01:05:04;;;;;;;3.33;3.03;;;;;;;;;;5910919;28;20078;-72
2023/10/12 01:07:55;;;;;;;3.55;2.42;;;;;;;;;;5911810;28;20387;-72
2023/10/12 01:10:46;;;;;;;5.00;2.67;;;;;;;;;;5911073;28;20045;-72
2023/10/12 01:13:36;;;;;;;4.85;1.88;;;;;;;;;;5910254;28;20430;-71
2023/10/12 01:19:48;;;;;;;3.53;2.28;;;;;;;;;;5892430;28;20048;-72
2023/10/12 01:22:39;;;;;;;2.45;2.22;;;;;;;;;;5910711;28;20068;-71
2023/10/12 01:25:30;;;;;;;2.38;2.17;;;;;;;;;;5910655;28;20400;-73
2023/10/12 01:28:21;;;;;;;3.65;2.53;;;;;;;;;;5905394;28;20135;-72
2023/10/12 01:31:12;;;;;;;4.57;3.72;;;;;;;;;;5910615;28;20071;-72
2023/10/12 01:34:03;;;;;;;24.08;3.63;;;;;;;;;;5910773;28;20052;-72
2023/10/12 01:36:57;;;;;;;3.90;2.33;;;;;;;;;;5911257;28;20056;-72
2023/10/12 01:45:41;;;;;;;3.60;3.00;;;;;;;;;;5910511;28;20052;-72
2023/10/12 01:48:37;;;;;;;7.22;3.30;;;;;;;;;;5910269;28;20048;-72
2023/10/12 01:51:29;;;;;;;3.58;1.92;;;;;;;;;;5910476;28;20052;-73
2023/10/12 01:54:24;;;;;;;6.93;2.67;;;;;;;;;;5910087;28;20044;-73
2023/10/12 01:57:29;;;;;;;5.43;3.13;;;;;;;;;;5914089;28;20092;-73
2023/10/12 02:00:31;;;;;;;3.80;2.80;;;;;;;;;;5915016;28;20045;-73
2023/10/12 02:03:31;;;;;;;12.60;2.97;;;;;;;;;;5914870;28;20040;-74
2023/10/12 02:06:23;;;;;;;3.72;2.55;;;;;;;;;;5914802;28;20090;-74
2023/10/12 02:09:15;;;;;;;3.58;3.08;;;;;;;;;;5914875;28;20043;-72
2023/10/12 02:12:12;;;;;;;5.22;2.85;;;;;;;;;;5914631;28;20049;-73
2023/10/12 02:15:04;;;;;;;3.50;2.83;;;;;;;;;;5914809;28;20068;-74
2023/10/12 02:17:58;;;;;;;3.53;2.28;;;;;;;;;;5915065;28;20678;-72
2023/10/12 02:21:07;;;;;;;2.65;2.20;;;;;;;;;;5914904;28;20044;-74
2023/10/12 02:24:10;;;;;;;5.30;2.80;;;;;;;;;;5915120;28;20055;-72
2023/10/12 02:27:03;;;;;;;3.10;2.65;;;;;;;;;;5914435;28;20037;-73
2023/10/12 02:29:56;;;;;;;2.70;2.50;;;;;;;;;;5915058;28;20395;-74
2023/10/12 02:32:54;;;;;;;4.75;2.90;;;;;;;;;;5913473;28;20060;-73
2023/10/12 02:35:45;;;;;;;2.97;2.05;;;;;;;;;;5914190;28;20044;-72
2023/10/12 02:38:36;;;;;;;8.82;2.85;;;;;;;;;;5914378;28;20079;-73
2023/10/12 02:41:27;;;;;;;6.32;3.13;;;;;;;;;;5914247;28;20376;-73
2023/10/12 02:44:19;;;;;;;4.75;3.35;;;;;;;;;;5912704;28;20365;-72
2023/10/12 02:47:18;;;;;;;2.35;2.15;;;;;;;;;;5896513;28;20388;-72
2023/10/12 02:53:08;;;;;;;4.15;2.28;;;;;;;;;;5896213;28;20131;-74
2023/10/12 02:56:01;;;;;;;;;;;;;;;;;;5914984;28;20392;-73
2023/10/12 02:58:52;;;;;;;3.30;2.60;;;;;;;;;;5897731;28;20260;-74
2023/10/12 03:01:42;;;;;;;4.60;2.35;;;;;;;;;;5913865;28;20076;-73
2023/10/12 03:04:39;;;;;;;9.90;2.42;;;;;;;;;;5913621;28;20044;-72
2023/10/12 03:07:36;;;;;;;4.72;2.47;;;;;;;;;;5912144;28;20049;-73
2023/10/12 03:10:27;;;;;;;2.00;1.85;;;;;;;;;;5913575;28;20045;-74
2023/10/12 03:13:25;;;;;;;4.40;2.08;;;;;;;;;;5913408;28;20041;-73
2023/10/12 03:19:28;;;;;;;8.98;2.40;;;;;;;;;;5913461;28;20391;-74
2023/10/12 03:22:43;;;;;;;7.05;2.50;;;;;;;;;;5912711;28;20415;-72
2023/10/12 03:25:43;;;;;;;2.33;2.10;;;;;;;;;;5913079;28;20048;-74
2023/10/12 03:28:44;;;;;;;2.90;1.80;;;;;;;;;;5913195;28;20071;-74
2023/10/12 03:32:08;;;;;;;3.15;2.67;;;;;;;;;;5912867;28;20044;-73
2023/10/12 03:37:47;;;;;;;3.50;2.70;;;;;;;;;;5912826;28;20048;-74
2023/10/12 03:40:52;;;;;;;3.90;2.28;;;;;;;;;;5912660;28;20048;-72
2023/10/12 03:43:47;;;;;;;2.75;2.00;;;;;;;;;;5912721;28;20047;-73
2023/10/12 03:46:45;;;;;;;2.58;1.83;;;;;;;;;;5912801;28;20048;-73
2023/10/12 03:52:51;;;;;;;3.60;2.13;;;;;;;;;;5912616;28;20113;-72
2023/10/12 03:55:49;;;;;;;21.77;3.30;;;;;;;;;;5912510;28;20060;-73
2023/10/12 03:58:47;;;;;;;4.72;2.03;;;;;;;;;;5912534;28;20094;-72
2023/10/12 04:01:41;;;;;;;1.85;1.50;;;;;;;;;;5912391;28;20052;-73
2023/10/12 04:04:41;;;;;;;2.83;1.48;;;;;;;;;;5912427;28;20037;-73
2023/10/12 04:07:39;;;;;;;4.25;2.10;;;;;;;;;;5912228;28;20044;-73
2023/10/12 04:11:21;;;;;;;4.03;2.15;;;;;;;;;;5912232;28;20048;-73
2023/10/12 04:16:45;;;;;;;5.35;2.78;;;;;;;;;;5912020;28;20058;-73
2023/10/12 04:19:42;;;;;;;2.70;1.77;;;;;;;;;;5911352;28;20546;-72
2023/10/12 04:25:46;;;;;;;2.67;2.08;;;;;;;;;;5910743;28;20049;-72
2023/10/12 04:28:38;;;;;;;2.65;1.63;;;;;;;;;;5911984;28;20147;-72
2023/10/12 04:34:26;;;;;;;3.10;1.88;;;;;;;;;;5911572;28;20060;-73
2023/10/12 04:37:25;;;;;;;2.30;1.95;;;;;;;;;;5911375;28;20047;-73
2023/10/12 04:40:36;;;;;;;5.80;2.20;;;;;;;;;;5911633;28;20044;-74
2023/10/12 04:43:27;;;;;;;2.55;2.08;;;;;;;;;;5896758;28;20044;-73
2023/10/12 04:55:07;;;;;;;1.85;1.67;;;;;;;;;;5911186;28;20047;-72
2023/10/12 05:01:51;;;;;;;3.17;2.35;;;;;;;;;;5838853;28;20046;-72
2023/10/12 05:07:53;;;;;;;4.07;2.42;;;;;;;;;;5910882;28;20364;-73
2023/10/12 05:10:47;;;;;;;10.25;3.55;;;;;;;;;;5909007;28;20171;-72
2023/10/12 05:13:43;;;;;;;5.53;1.85;;;;;;;;;;5910940;28;20040;-72
2023/10/12 05:16:34;;;;;;;3.72;2.63;;;;;;;;;;5910905;28;20122;-72
2023/10/12 05:19:26;;;;;;;2.75;1.92;;;;;;;;;;5911010;28;20329;-73
2023/10/12 05:22:17;;;;;;;21.55;2.35;;;;;;;;;;5910514;28;20044;-73
2023/10/12 05:25:10;;;;;;;3.90;2.15;;;;;;;;;;5910795;28;20127;-72
2023/10/12 05:28:14;;;;;;;2.22;2.00;;;;;;;;;;5911029;28;20051;-72
2023/10/12 05:34:26;;;;;;;5.65;2.88;;;;;;;;;;5911091;28;20122;-72
2023/10/12 05:40:11;;;;;;;3.28;1.75;;;;;;;;;;5910596;28;20044;-73
2023/10/12 05:43:16;;;;;;;4.65;2.65;;;;;;;;;;5910603;28;20051;-73
2023/10/12 05:46:15;;;;;;;2.22;1.90;;;;;;;;;;5909498;28;20504;-74
2023/10/12 05:49:13;;;;;;;5.00;2.72;;;;;;;;;;5910500;28;20049;-72
2023/10/12 05:52:06;;;;;;;3.67;2.47;;;;;;;;;;5910113;28;20130;-72
2023/10/12 05:55:07;;;;;;;3.15;2.15;;;;;;;;;;5911014;28;20130;-72
2023/10/12 05:58:09;;;;;;;7.40;3.20;;;;;;;;;;5910532;28;20122;-73
2023/10/12 06:01:08;;;;;;;4.03;2.05;;;;;;;;;;5910600;28;20040;-73
2023/10/12 06:04:00;;;;;;;7.90;2.53;;;;;;;;;;5910842;28;20099;-72
2023/10/12 06:06:51;;;;;;;2.88;2.42;;;;;;;;;;5886008;28;20060;-72
2023/10/12 06:09:43;;;;;;;3.20;1.60;;;;;;;;;;5900980;28;20420;-71
2023/10/12 06:12:35;;;;;;;2.88;2.42;;;;;;;;;;5897397;28;20163;-72
2023/10/12 06:15:28;;;;;;;2.80;2.45;;;;;;;;;;5898494;28;20503;-73
2023/10/12 06:18:25;;;;;;;2.17;1.88;;;;;;;;;;5899497;28;20056;-73
2023/10/12 06:21:17;;;;;;;5.25;3.03;;;;;;;;;;5888949;28;20051;-72
2023/10/12 06:24:11;;;;;;;5.90;3.42;;;;;;;;;;5878265;28;20467;-73
2023/10/12 06:27:22;;;;;;;4.20;3.45;;;;;;;;;;5885731;28;20402;-73
2023/10/12 06:30:18;;;;;;;5.93;2.85;;;;;;;;;;5910143;28;20041;-72
2023/10/12 06:40:48;;;;;;;6.10;3.22;;;;;;;;;;5909995;28;20056;-72
2023/10/12 06:51:20;;;;;;;4.40;3.28;;;;;;;;;;5913985;28;20075;-73
2023/10/12 06:54:31;;;;;;;27.50;3.65;;;;;;;;;;5913738;28;20046;-73
2023/10/12 07:00:33;;;;;;;5.85;3.05;;;;;;;;;;5913539;28;20049;-72
2023/10/12 07:03:24;;;;;;;7.00;3.05;;;;;;;;;;5913597;28;20127;-72
2023/10/12 07:06:16;;;;;;;5.72;2.97;;;;;;;;;;5913516;28;20126;-74
2023/10/12 07:09:07;;;;;;;4.25;1.52;;;;;;;;;;5913519;28;20056;-72
2023/10/12 07:11:58;;;;;;;6.68;2.70;;;;;;;;;;5914155;28;20037;-75
2023/10/12 07:14:55;;;;;;;4.35;2.10;;;;;;;;;;5913159;28;20048;-72
2023/10/12 07:17:49;;;;;;;2.30;1.75;;;;;;;;;;5913619;28;20384;-72
2023/10/12 07:20:41;;;;;;;8.02;3.03;;;;;;;;;;5913614;28;20048;-73
2023/10/12 07:23:42;;;;;;;4.82;2.95;;;;;;;;;;5913304;28;20041;-73
2023/10/12 07:26:33;;;;;;;6.05;2.63;;;;;;;;;;5913459;28;20044;-73
2023/10/12 07:29:35;;;;;;;14.30;2.92;;;;;;;;;;5912984;28;20049;-72
2023/10/12 07:33:04;;;;;;;8.02;3.03;;;;;;;;;;5913174;28;20048;-73
2023/10/12 07:35:56;;;;;;;5.20;2.95;;;;;;;;;;5882261;28;20041;-72
2023/10/12 07:39:13;;;;;;;7.75;2.92;;;;;;;;;;5889685;28;20045;-73
2023/10/12 07:42:00;;;;;;;4.07;2.55;;;;;;;;;;5889793;28;20037;-73
2023/10/12 07:44:54;;;;;;;16.48;2.88;;;;;;;;;;5888763;28;20064;-73
2023/10/12 07:47:58;;;;;;;3.70;2.28;;;;;;;;;;5889538;28;20052;-73
2023/10/12 07:50:50;;;;;;;3.05;1.75;;;;;;;;;;5889846;28;20120;-73
2023/10/12 07:53:49;;;;;;;10.23;2.90;;;;;;;;;;5888455;28;20040;-73
2023/10/12 07:56:40;;;;;;;5.22;2.00;;;;;;;;;;5889308;28;20053;-72
2023/10/12 07:59:31;;;;;;;4.13;2.08;;;;;;;;;;5871609;28;20049;-73
2023/10/12 08:03:05;;;;;;;5.80;2.63;;;;;;;;;;5888906;28;20048;-72
2023/10/12 08:05:56;;;;;;;6.20;2.10;;;;;;;;;;5876619;28;20484;-72
2023/10/12 08:08:48;;;;;;;5.95;3.50;;;;;;;;;;5889177;28;20056;-74
2023/10/12 08:11:39;;;;;;;12.80;2.15;;;;;;;;;;5888929;28;20052;-73
2023/10/12 08:17:33;;;;;;;3.80;1.92;;;;;;;;;;5883285;28;20060;-72
2023/10/12 08:23:50;;;;;;;8.68;2.67;;;;;;;;;;5883381;28;20472;-73
2023/10/12 08:35:32;;;;;;;6.53;2.80;;;;;;;;;;5887898;28;20041;-72
2023/10/12 08:38:40;;;;;;;3.97;1.80;;;;;;;;;;5888031;28;20057;-73
2023/10/12 08:44:43;;;;;;;3.45;1.95;;;;;;;;;;5889741;28;20075;-75
2023/10/12 08:53:40;;;;;;;6.55;2.45;;;;;;;;;;5911218;28;20446;-72
2023/10/12 08:56:37;;;;;;;5.25;1.67;;;;;;;;;;5910890;28;20160;-73
2023/10/12 08:59:33;;;;;;;9.70;2.30;;;;;;;;;;5894035;28;20047;-74
2023/10/12 09:02:24;;;;;;;4.20;1.58;;;;;;;;;;5893656;28;20370;-74
2023/10/12 09:05:24;;;;;;;5.80;2.22;;;;;;;;;;5910894;28;20446;-72
2023/10/12 09:14:01;;;;;;;2.88;1.60;;;;;;;;;;5911281;28;20044;-74
2023/10/12 09:16:54;;;;;;;2.50;1.67;;;;;;;;;;5910932;28;20059;-73
2023/10/12 09:19:46;;;;;;;1.77;1.35;;;;;;;;;;5910804;28;20055;-73
2023/10/12 09:22:39;;;;;;;5.50;1.80;;;;;;;;;;5910732;28;20491;-73
2023/10/12 09:34:42;;;;;;;1.83;1.17;;;;;;;;;;5910646;28;20048;-72
2023/10/12 09:37:43;;;;;;;7.75;2.38;;;;;;;;;;5909128;28;20051;-74
2023/10/12 09:40:39;;;;;;;7.63;2.05;;;;;;;;;;5910582;28;20146;-74
2023/10/12 09:43:33;;;;;;;3.33;1.35;;;;;;;;;;5893325;28;20052;-73
2023/10/12 09:46:27;;;;;;;4.55;2.00;;;;;;;;;;5892623;28;20044;-73
2023/10/12 09:49:23;;;;;;;7.50;1.58;;;;;;;;;;5893177;28;20475;-74
2023/10/12 09:52:17;;;;;;;3.72;2.42;;;;;;;;;;5910410;28;20044;-73
2023/10/12 09:55:32;;;;;;;9.32;2.13;;;;;;;;;;5892520;28;20511;-73
2023/10/12 09:58:22;;;;;;;3.13;1.42;;;;;;;;;;5910059;28;20068;-73
2023/10/12 10:01:17;;;;;;;8.18;2.30;;;;;;;;;;5910091;28;20048;-72
2023/10/12 10:07:26;;;;;;;9.70;2.35;;;;;;;;;;5910076;28;20048;-73
2023/10/12 10:10:30;;;;;;;2.53;1.70;;;;;;;;;;5910168;28;20044;-72
2023/10/12 10:13:38;;;;;;;10.65;3.08;;;;;;;;;;5894250;28;20383;-74
2023/10/12 10:16:46;;;;;;;4.60;2.15;;;;;;;;;;5910509;28;20063;-74
2023/10/12 10:19:38;;;;;;;3.35;1.90;;;;;;;;;;5898909;28;20553;-74
2023/10/12 10:22:32;;;;;;;7.97;2.15;;;;;;;;;;5914315;28;20041;-73
2023/10/12 10:25:45;;;;;;;5.85;1.85;;;;;;;;;;5914449;28;20486;-73
2023/10/12 10:28:36;;;;;;;4.28;1.73;;;;;;;;;;5898569;28;20041;-73
2023/10/12 10:31:31;;;;;;;3.40;1.80;;;;;;;;;;5914255;28;20395;-74
2023/10/12 10:34:25;;;;;;;5.90;2.03;;;;;;;;;;5896585;28;20040;-74
2023/10/12 10:37:58;;;;;;;4.15;1.60;;;;;;;;;;5913725;28;20056;-75
2023/10/12 10:41:05;;;;;;;3.58;2.28;;;;;;;;;;5914330;28;20055;-73
2023/10/12 10:43:56;;;;;;;7.10;1.92;;;;;;;;;;5914281;28;20127;-74
2023/10/12 10:46:54;;;;;;;2.80;1.77;;;;;;;;;;5913772;28;20412;-74
2023/10/12 10:49:48;;;;;;;15.38;3.17;;;;;;;;;;5896232;28;20047;-74
2023/10/12 10:52:39;;;;;;;3.80;2.25;;;;;;;;;;5913820;28;20563;-74
2023/10/12 10:55:33;;;;;;;4.85;2.28;;;;;;;;;;5895715;28;20060;-72
2023/10/12 10:58:24;;;;;;;8.18;2.40;;;;;;;;;;5913557;28;20052;-73
2023/10/12 11:01:20;;;;;;;5.95;2.45;;;;;;;;;;5913349;28;20052;-74
2023/10/12 11:04:17;;;;;;;3.08;1.55;;;;;;;;;;5913590;28;20454;-74
2023/10/12 11:07:11;;;;;;;;;;;;;;;;;;5913904;28;20082;-73
2023/10/12 11:10:07;;;;;;;5.38;2.22;;;;;;;;;;5913505;28;19921;-74
2023/10/12 11:13:03;;;;;;;4.78;2.10;;;;;;;;;;5913667;28;20052;-74
2023/10/12 11:15:55;;;;;;;6.50;2.17;;;;;;;;;;5896649;28;20040;-75
2023/10/12 11:18:47;;;;;;;2.88;1.63;;;;;;;;;;5895564;28;20044;-73
2023/10/12 11:21:46;;;;;;;10.38;2.03;;;;;;;;;;5912933;28;20058;-73
2023/10/12 11:24:45;;;;;;;3.65;1.85;;;;;;;;;;5895464;28;20114;-76
2023/10/12 11:27:36;;;;;;;6.57;1.95;;;;;;;;;;5894770;28;20175;-74
2023/10/12 11:30:34;;;;;;;9.32;1.92;;;;;;;;;;5894829;28;20044;-73
2023/10/12 11:33:29;;;;;;;;;;;;;;;;;;5896131;28;20515;-74
2023/10/12 11:36:25;;;;;;;1.83;1.48;;;;;;;;;;5912662;28;20283;-74
2023/10/12 11:39:16;;;;;;;2.42;1.52;;;;;;;;;;5912901;28;20048;-74
2023/10/12 11:42:08;;;;;;;2.67;1.65;;;;;;;;;;5912628;28;20064;-74
2023/10/12 11:45:06;;;;;;;5.10;1.38;;;;;;;;;;5913383;28;20040;-74
2023/10/12 11:47:57;;;;;;;4.13;2.25;;;;;;;;;;5895366;28;20063;-74
2023/10/12 11:50:51;;;;;;;9.50;2.17;;;;;;;;;;5895356;28;20483;-74
2023/10/12 11:53:42;;;;;;;4.18;2.33;;;;;;;;;;5894782;28;20048;-74
2023/10/12 11:56:43;;;;;;;4.82;2.17;;;;;;;;;;5894612;28;20056;-73
2023/10/12 11:59:35;;;;;;;5.38;2.08;;;;;;;;;;5912651;28;20048;-74
2023/10/12 12:02:26;;;;;;;4.57;2.35;;;;;;;;;;5912279;28;20411;-74
2023/10/12 12:05:17;;;;;;;5.43;2.50;;;;;;;;;;5912332;28;20059;-73
2023/10/12 12:08:14;;;;;;;5.78;2.15;;;;;;;;;;5911904;28;20045;-73
2023/10/12 12:11:05;;;;;;;10.02;2.38;;;;;;;;;;5912156;28;20040;-74
2023/10/12 12:13:56;;;;;;;23.98;2.28;;;;;;;;;;5912058;28;20821;-72
2023/10/12 12:16:47;;;;;;;2.25;1.63;;;;;;;;;;5911738;28;20049;-73
2023/10/12 12:19:41;;;;;;;3.20;1.33;;;;;;;;;;5893603;28;20049;-73
2023/10/12 12:22:41;;;;;;;1.88;1.52;;;;;;;;;;5910930;28;20056;-75
2023/10/12 12:25:32;;;;;;;6.65;1.90;;;;;;;;;;5911670;28;20060;-74
2023/10/12 12:28:23;;;;;;;2.17;1.35;;;;;;;;;;5911352;28;20057;-74
2023/10/12 12:31:14;;;;;;;9.20;2.30;;;;;;;;;;5911436;28;20483;-72
2023/10/12 12:34:06;;;;;;;7.18;2.17;;;;;;;;;;5911606;28;20036;-73
2023/10/12 12:36:57;;;;;;;7.18;1.83;;;;;;;;;;5894065;28;20048;-73
2023/10/12 12:43:01;;;;;;;2.80;1.52;;;;;;;;;;5911302;28;20371;-74
2023/10/12 12:45:52;;;;;;;3.00;1.35;;;;;;;;;;5911856;28;20633;-73
2023/10/12 12:48:45;;;;;;;5.03;2.25;;;;;;;;;;5911058;28;20060;-73
2023/10/12 12:51:38;;;;;;;8.07;1.15;;;;;;;;;;5911259;28;20047;-74
2023/10/12 12:54:31;;;;;;;3.67;1.95;;;;;;;;;;5911303;28;20081;-72
2023/10/12 12:57:23;;;;;;;5.60;1.92;;;;;;;;;;5893441;28;20055;-74
2023/10/12 13:00:19;;;;;;;2.45;1.48;;;;;;;;;;5910999;28;20423;-73
2023/10/12 13:03:11;;;;;;;6.75;1.58;;;;;;;;;;5910625;28;20072;-73
2023/10/12 13:06:07;;;;;;;6.82;1.70;;;;;;;;;;5910866;28;20395;-74
2023/10/12 13:09:01;;;;;;;3.03;1.95;;;;;;;;;;5911536;28;20045;-73
2023/10/12 13:11:52;;;;;;;2.78;1.75;;;;;;;;;;5910997;28;20036;-74
2023/10/12 13:14:43;;;;;;;2.67;1.45;;;;;;;;;;5910845;28;20048;-73
2023/10/12 13:17:34;;;;;;;14.80;2.45;;;;;;;;;;5910735;28;20045;-73
2023/10/12 13:20:29;;;;;;;6.93;1.92;;;;;;;;;;5910846;28;20051;-74
2023/10/12 13:23:21;;;;;;;3.17;1.90;;;;;;;;;;5910600;28;20049;-74
2023/10/12 13:26:21;;;;;;;2.67;1.42;;;;;;;;;;5910433;28;20098;-73
2023/10/12 13:29:13;;;;;;;5.93;2.58;;;;;;;;;;5893429;28;20102;-73
2023/10/12 13:32:08;;;;;;;19.83;2.25;;;;;;;;;;5893140;28;20048;-73
2023/10/12 13:35:00;;;;;;;29.20;2.25;;;;;;;;;;5911128;28;20047;-74
2023/10/12 13:37:51;;;;;;;10.50;2.97;;;;;;;;;;5893001;28;20043;-73
2023/10/12 13:40:46;;;;;;;3.35;2.10;;;;;;;;;;5910696;28;20045;-73
2023/10/12 13:43:37;;;;;;;3.90;1.55;;;;;;;;;;5893150;28;20044;-74
2023/10/12 13:46:30;;;;;;;3.65;1.67;;;;;;;;;;5892879;28;20051;-74
2023/10/12 13:49:22;;;;;;;4.22;1.75;;;;;;;;;;5910402;28;20048;-73
2023/10/12 13:52:13;;;;;;;3.65;1.95;;;;;;;;;;5912087;28;20055;-73
2023/10/12 13:55:13;;;;;;;5.70;2.67;;;;;;;;;;5915312;28;20056;-73
2023/10/12 13:58:05;;;;;;;6.05;2.47;;;;;;;;;;5898395;28;20131;-74
2023/10/12 14:00:56;;;;;;;7.93;2.58;;;;;;;;;;5915624;28;20044;-75
2023/10/12 14:03:55;;;;;;;5.30;2.58;;;;;;;;;;5915053;28;20044;-74
2023/10/12 14:06:46;;;;;;;9.07;2.10;;;;;;;;;;5915010;28;20156;-73
2023/10/12 14:09:39;;;;;;;4.72;2.38;;;;;;;;;;5914856;28;20067;-74
2023/10/12 14:12:30;;;;;;;3.58;2.15;;;;;;;;;;5914710;28;20165;-72
2023/10/12 14:15:22;;;;;;;8.40;2.53;;;;;;;;;;5914638;28;20048;-73
2023/10/12 14:18:17;;;;;;;8.38;2.67;;;;;;;;;;5914190;28;20052;-73
2023/10/12 14:21:13;;;;;;;9.38;3.38;;;;;;;;;;5897134;28;20048;-73
2023/10/12 14:24:05;;;;;;;8.23;2.45;;;;;;;;;;5892996;28;20051;-72
2023/10/12 14:26:58;;;;;;;6.60;3.22;;;;;;;;;;5919759;28;20044;-72
2023/10/12 14:29:52;;;;;;;7.35;3.45;;;;;;;;;;5913415;28;20475;-73
2023/10/12 14:32:43;;;;;;;7.93;2.97;;;;;;;;;;5913792;28;20516;-74
2023/10/12 14:35:40;;;;;;;6.65;3.22;;;;;;;;;;5913639;28;20052;-74
2023/10/12 14:38:32;;;;;;;7.28;3.80;;;;;;;;;;5913306;28;20048;-72
2023/10/12 14:41:25;;;;;;;4.80;3.63;;;;;;;;;;5901491;28;20125;-72
2023/10/12 14:44:16;;;;;;;7.18;4.25;;;;;;;;;;5894906;28;20060;-73
2023/10/12 14:47:07;;;;;;;8.77;4.60;;;;;;;;;;5924139;28;20545;-72
2023/10/12 14:50:02;;;;;;;24.58;5.07;;;;;;;;;;5924967;28;20056;-74
2023/10/12 14:52:53;;;;;;;48.90;5.28;;;;;;;;;;5913007;28;20415;-72
2023/10/12 14:55:48;;;;;;;13.77;4.10;;;;;;;;;;5912071;28;20068;-74
2023/10/12 14:58:40;;;;;;;12.80;4.97;;;;;;;;;;5917364;28;20383;-73
2023/10/12 15:01:32;;;;;;;6.20;4.78;;;;;;;;;;5871317;28;20056;-74
2023/10/12 15:04:24;;;;;;;15.85;4.35;;;;;;;;;;5909978;28;20068;-74
2023/10/12 15:07:15;;;;;;;8.20;5.22;;;;;;;;;;5924553;28;20044;-75
2023/10/12 15:10:07;;;;;;;12.48;5.72;;;;;;;;;;5934332;28;20517;-75
2023/10/12 15:12:58;;;;;;;6.18;4.10;;;;;;;;;;5936340;28;20043;-73
2023/10/12 15:15:49;;;;;;;5.35;3.72;;;;;;;;;;5925624;28;20044;-76
2023/10/12 15:18:41;;;;;;;8.15;4.25;;;;;;;;;;5935003;28;20039;-74
2023/10/12 15:21:34;;;;;;;9.60;3.53;;;;;;;;;;5922643;28;20127;-77
2023/10/12 15:24:27;;;;;;;5.75;3.67;;;;;;;;;;5888957;28;20403;-74
2023/10/12 15:27:17;;;;;;;5.68;3.60;;;;;;;;;;5880791;28;20048;-73
2023/10/12 15:30:10;;;;;;;6.25;3.70;;;;;;;;;;5908824;28;20048;-75
2023/10/12 15:36:07;;;;;;;6.75;4.10;;;;;;;;;;4082686;22;20136;-78
2023/10/12 15:38:58;;;;;;;8.57;3.83;;;;;;;;;;5903392;28;20418;-78
2023/10/12 15:41:49;;;;;;;6.50;4.88;;;;;;;;;;5905558;28;20044;-78
2023/10/12 15:44:39;;;;;;;16.13;9.70;;;;;;;;;;5905712;28;20120;-77
2023/10/12 15:47:30;;;;;;;22.67;12.13;;;;;;;;;;5889319;28;20052;-77
2023/10/12 15:50:21;;;;;;;35.88;20.70;;;;;;;;;;5903892;28;20049;-78
2023/10/12 15:53:12;;;;;;;31.95;16.67;;;;;;;;;;5892270;28;20430;-78
2023/10/12 15:56:09;;;;;;;50.10;16.75;;;;;;;;;;5887124;28;20514;-78
2023/10/12 15:59:01;;;;;;;40.00;19.65;;;;;;;;;;5886130;28;20048;-78
2023/10/12 16:01:52;;;;;;;24.67;13.38;;;;;;;;;;5895368;28;20037;-78
2023/10/12 16:04:45;;;;;;;21.63;11.32;;;;;;;;;;5883862;28;20054;-78
2023/10/12 16:07:36;;;;;;;61.47;28.17;;;;;;;;;;5907241;28;20486;-78
2023/10/12 16:10:28;;;;;;;33.15;13.88;;;;;;;;;;5909734;28;20063;-78
2023/10/12 16:13:19;;;;;;;34.30;16.05;;;;;;;;;;5902743;28;20044;-78
2023/10/12 16:16:11;;;;;;;15.88;10.90;;;;;;;;;;5904175;28;20048;-78
2023/10/12 16:19:03;;;;;;;20.92;9.40;;;;;;;;;;5901512;28;20076;-78
2023/10/12 16:21:55;;;;;;;19.13;10.98;;;;;;;;;;5898104;28;20059;-79
2023/10/12 16:24:49;;;;;;;17.83;10.07;;;;;;;;;;5902729;28;20472;-78
2023/10/12 16:27:42;;;;;;;30.17;20.48;;;;;;;;;;5905630;28;20042;-78
2023/10/12 16:30:34;;;;;;;21.30;13.50;;;;;;;;;;5905823;28;20044;-77
2023/10/12 16:33:25;;;;;;;34.00;16.83;;;;;;;;;;5904054;28;20044;-78
2023/10/12 16:36:16;;;;;;;28.00;16.95;;;;;;;;;;5882877;28;20131;-78
2023/10/12 16:39:10;;;;;;;19.25;11.57;;;;;;;;;;5884141;28;20052;-78
2023/10/12 16:42:02;;;;;;;20.88;13.25;;;;;;;;;;5903102;28;20147;-78
2023/10/12 16:44:53;;;;;;;31.80;15.90;;;;;;;;;;5902740;28;20127;-79
2023/10/12 16:47:45;;;;;;;41.55;18.58;;;;;;;;;;5890644;28;20051;-78
2023/10/12 16:50:40;;;;;;;29.80;15.32;;;;;;;;;;5889559;28;20491;-78
2023/10/12 16:53:31;;;;;;;61.88;20.38;;;;;;;;;;5887245;28;20076;-78
2023/10/12 16:56:23;;;;;;;37.72;13.18;;;;;;;;;;5906168;28;20419;-79
2023/10/12 16:59:17;;;;;;;13.73;6.75;;;;;;;;;;5903442;28;20056;-79
2023/10/12 17:02:10;;;;;;;20.48;9.57;;;;;;;;;;5882192;28;20056;-78
2023/10/12 17:05:01;;;;;;;19.40;10.13;;;;;;;;;;5907717;28;20064;-78
2023/10/12 17:07:53;;;;;;;22.00;9.60;;;;;;;;;;5900954;28;20499;-78
2023/10/12 17:10:44;;;;;;;19.67;6.60;;;;;;;;;;5905718;28;20355;-78
2023/10/12 17:13:35;;;;;;;11.00;6.78;;;;;;;;;;5907331;28;20506;-78
2023/10/12 17:16:30;;;;;;;20.90;5.50;;;;;;;;;;5907957;28;20049;-78
2023/10/12 17:19:21;;;;;;;43.72;5.90;;;;;;;;;;5903661;28;20617;-78
2023/10/12 17:22:14;;;;;;;5.40;3.58;;;;;;;;;;5900887;28;20051;-78
2023/10/12 17:25:08;;;;;;;11.35;5.65;;;;;;;;;;5907315;28;20063;-78
2023/10/12 17:27:59;;;;;;;6.50;4.57;;;;;;;;;;5900619;28;20087;-78
2023/10/12 17:30:50;;;;;;;14.98;6.20;;;;;;;;;;5908006;28;20056;-78
2023/10/12 17:33:42;;;;;;;15.65;6.88;;;;;;;;;;5888235;28;20048;-77
2023/10/12 17:36:33;;;;;;;10.45;7.22;;;;;;;;;;5884986;28;20052;-78
2023/10/12 17:39:31;;;;;;;14.55;6.75;;;;;;;;;;5883796;28;20049;-77
2023/10/12 17:42:22;;;;;;;16.40;6.03;;;;;;;;;;5904071;28;20141;-78
2023/10/12 17:45:17;;;;;;;9.90;6.22;;;;;;;;;;5883859;28;20041;-78
2023/10/12 17:48:08;;;;;;;15.57;7.30;;;;;;;;;;5901109;28;20053;-78
2023/10/12 17:50:59;;;;;;;11.50;5.78;;;;;;;;;;5874450;28;20480;-78
2023/10/12 17:53:50;;;;;;;14.55;6.57;;;;;;;;;;5887687;28;20052;-77
2023/10/12 17:56:41;;;;;;;17.85;5.47;;;;;;;;;;5888118;28;20048;-78
2023/10/12 17:59:32;;;;;;;7.82;5.00;;;;;;;;;;5903568;28;20051;-78
2023/10/12 18:02:23;;;;;;;10.80;5.75;;;;;;;;;;5902926;28;20143;-78
2023/10/12 18:05:14;;;;;;;18.95;7.28;;;;;;;;;;5906917;28;20063;-78
2023/10/12 18:08:05;;;;;;;15.60;7.38;;;;;;;;;;5907657;28;20048;-77
2023/10/12 18:11:04;;;;;;;15.13;7.07;;;;;;;;;;5888975;28;20514;-78
2023/10/12 18:13:55;;;;;;;10.55;5.10;;;;;;;;;;5904606;28;20048;-78
2023/10/12 18:16:45;;;;;;;11.20;6.25;;;;;;;;;;5897775;28;20037;-78
2023/10/12 18:19:37;;;;;;;33.80;10.70;;;;;;;;;;5906545;28;20126;-78
2023/10/12 18:22:28;;;;;;;16.13;7.15;;;;;;;;;;5902295;28;20079;-78
2023/10/12 18:25:19;;;;;;;9.90;6.68;;;;;;;;;;5907683;28;20049;-77
2023/10/12 18:28:16;;;;;;;18.48;10.15;;;;;;;;;;5905798;28;20045;-78
2023/10/12 18:31:10;;;;;;;10.98;7.10;;;;;;;;;;5901806;28;20167;-78
2023/10/12 18:34:01;;;;;;;18.13;6.93;;;;;;;;;;5906685;28;20102;-78
2023/10/12 18:36:52;;;;;;;10.05;6.00;;;;;;;;;;5883912;28;20549;-78
2023/10/12 18:40:01;;;;;;;10.25;5.90;;;;;;;;;;5900472;28;20083;-78
2023/10/12 18:42:54;;;;;;;9.55;6.20;;;;;;;;;;5892283;28;20045;-78
2023/10/12 18:45:56;;;;;;;8.32;5.03;;;;;;;;;;5911655;28;20060;-78
2023/10/12 18:48:46;;;;;;;9.70;4.47;;;;;;;;;;5910733;28;20041;-78
2023/10/12 18:51:38;;;;;;;13.43;6.15;;;;;;;;;;5904048;28;20052;-78
2023/10/12 18:54:29;;;;;;;13.23;6.07;;;;;;;;;;5889361;28;20040;-78
2023/10/12 18:57:20;;;;;;;13.43;7.32;;;;;;;;;;5908204;28;20048;-78
2023/10/12 19:00:19;;;;;;;8.20;5.13;;;;;;;;;;5907346;28;20063;-78
2023/10/12 19:03:12;;;;;;;13.07;6.20;;;;;;;;;;5895111;28;20098;-78
2023/10/12 19:06:07;;;;;;;6.25;3.53;;;;;;;;;;5907519;28;20123;-78
2023/10/12 19:08:58;;;;;;;15.48;5.43;;;;;;;;;;5907698;28;20044;-78
2023/10/12 19:11:49;;;;;;;14.38;4.90;;;;;;;;;;5886237;28;20048;-78
2023/10/12 19:14:41;;;;;;;6.68;4.28;;;;;;;;;;5890854;28;20056;-78
2023/10/12 19:17:34;;;;;;;5.88;3.28;;;;;;;;;;5910466;28;20691;-78
2023/10/12 19:20:25;;;;;;;8.80;3.70;;;;;;;;;;5908993;28;20075;-78
2023/10/12 19:23:16;;;;;;;6.00;3.88;;;;;;;;;;5888527;28;20056;-78